createdAt,value
2018-09-25T00:00:14.270Z,2.40
2018-09-25T00:00:49.594Z,4.80
2018-09-25T00:01:24.809Z,4.00
2018-09-25T00:02:00.168Z,0.80
2018-09-25T00:02:35.706Z,0.80
2018-09-25T00:03:10.827Z,1.60
2018-09-25T00:03:45.933Z,3.20
2018-09-25T00:04:21.164Z,1.60
2018-09-25T00:04:56.524Z,0.80
2018-09-25T00:05:31.709Z,2.40
2018-09-25T00:06:07.448Z,1.60
2018-09-25T00:06:42.878Z,2.40
2018-09-25T00:07:18.186Z,1.60
2018-09-25T00:07:53.538Z,3.20
2018-09-25T00:08:28.833Z,2.40
2018-09-25T00:09:04.366Z,3.20
2018-09-25T00:09:39.559Z,3.20
2018-09-25T00:10:15.137Z,0.00
2018-09-25T00:10:50.844Z,1.60
2018-09-25T00:11:26.272Z,4.00
2018-09-25T00:12:01.516Z,3.20
2018-09-25T00:12:36.854Z,1.60
2018-09-25T00:13:12.183Z,2.40
2018-09-25T00:13:47.385Z,1.60
2018-09-25T00:14:22.625Z,1.60
2018-09-25T00:14:57.732Z,3.20
2018-09-25T00:15:32.940Z,6.40
2018-09-25T00:16:08.552Z,3.20
2018-09-25T00:16:44.042Z,4.00
2018-09-25T00:17:19.379Z,3.20
2018-09-25T00:17:55.139Z,3.20
2018-09-25T00:18:30.469Z,0.80
2018-09-25T00:19:05.607Z,1.60
2018-09-25T00:19:41.219Z,3.20
2018-09-25T00:20:16.742Z,2.40
2018-09-25T00:20:51.837Z,3.20
2018-09-25T00:21:27.273Z,2.40
2018-09-25T00:22:02.888Z,4.80
2018-09-25T00:22:38.221Z,2.40
2018-09-25T00:23:13.579Z,3.20
2018-09-25T00:23:48.673Z,5.60
2018-09-25T00:24:23.893Z,1.60
2018-09-25T00:24:59.726Z,0.00
2018-09-25T00:25:34.924Z,1.60
2018-09-25T00:26:10.182Z,2.40
2018-09-25T00:26:45.182Z,0.00
2018-09-25T00:27:20.601Z,2.40
2018-09-25T00:27:55.843Z,4.00
2018-09-25T00:28:31.288Z,0.80
2018-09-25T00:29:06.729Z,3.20
2018-09-25T00:29:42.120Z,2.40
2018-09-25T00:30:17.748Z,0.80
2018-09-25T00:30:53.147Z,4.80
2018-09-25T00:31:28.470Z,1.60
2018-09-25T00:32:03.805Z,2.40
2018-09-25T00:32:39.109Z,1.60
2018-09-25T00:33:14.621Z,0.80
2018-09-25T00:33:50.025Z,0.00
2018-09-25T00:34:25.651Z,0.00
2018-09-25T00:35:00.777Z,0.00
2018-09-25T00:35:36.175Z,0.00
2018-09-25T00:36:11.580Z,0.00
2018-09-25T00:36:46.687Z,0.80
2018-09-25T00:37:21.829Z,1.60
2018-09-25T00:37:57.165Z,2.40
2018-09-25T00:38:32.674Z,2.40
2018-09-25T00:39:07.939Z,3.20
2018-09-25T00:39:43.449Z,2.40
2018-09-25T00:40:18.884Z,2.40
2018-09-25T00:40:54.023Z,1.60
2018-09-25T00:41:29.238Z,3.20
2018-09-25T00:42:04.887Z,0.00
2018-09-25T00:42:40.678Z,0.00
2018-09-25T00:43:16.020Z,2.40
2018-09-25T00:43:51.344Z,2.40
2018-09-25T00:44:26.838Z,2.40
2018-09-25T00:45:02.176Z,2.40
2018-09-25T00:45:37.403Z,1.60
2018-09-25T00:46:12.729Z,3.20
2018-09-25T00:46:48.212Z,2.40
2018-09-25T00:47:23.432Z,3.20
2018-09-25T00:47:59.082Z,2.40
2018-09-25T00:48:34.879Z,1.60
2018-09-25T00:49:10.436Z,0.00
2018-09-25T00:49:45.961Z,2.40
2018-09-25T00:50:21.269Z,1.60
2018-09-25T00:50:56.688Z,2.40
2018-09-25T00:51:31.793Z,2.40
2018-09-25T00:52:07.215Z,1.60
2018-09-25T00:52:42.735Z,2.40
2018-09-25T00:53:18.267Z,3.20
2018-09-25T00:53:53.784Z,2.40
2018-09-25T00:54:29.241Z,0.00
2018-09-25T00:55:04.661Z,4.80
2018-09-25T00:55:40.176Z,2.40
2018-09-25T00:56:15.418Z,1.60
2018-09-25T00:56:50.650Z,0.80
2018-09-25T00:57:25.856Z,2.40
2018-09-25T00:58:01.202Z,1.60
2018-09-25T00:58:36.609Z,4.00
2018-09-25T00:59:12.140Z,0.80
2018-09-25T00:59:47.590Z,3.20
2018-09-25T01:00:23.034Z,1.60
2018-09-25T01:00:58.765Z,3.20
2018-09-25T01:01:33.887Z,0.80
2018-09-25T01:02:09.040Z,3.20
2018-09-25T01:02:44.458Z,2.40
2018-09-25T01:03:19.708Z,2.40
2018-09-25T01:03:55.166Z,2.40
2018-09-25T01:04:30.477Z,1.60
2018-09-25T01:05:05.960Z,0.80
2018-09-25T01:05:41.458Z,0.00
2018-09-25T01:06:16.984Z,0.80
2018-09-25T01:06:52.190Z,4.00
2018-09-25T01:07:27.504Z,2.40
2018-09-25T01:08:02.744Z,3.20
2018-09-25T01:08:38.786Z,1.60
2018-09-25T01:09:14.322Z,0.00
2018-09-25T01:09:49.512Z,0.00
2018-09-25T01:10:24.864Z,0.00
2018-09-25T01:11:00.186Z,0.00
2018-09-25T01:11:35.922Z,2.40
2018-09-25T01:12:11.245Z,1.60
2018-09-25T01:12:46.777Z,0.00
2018-09-25T01:13:22.304Z,0.00
2018-09-25T01:13:57.590Z,2.40
2018-09-25T01:14:33.011Z,0.80
2018-09-25T01:15:08.456Z,2.40
2018-09-25T01:15:43.893Z,2.40
2018-09-25T01:16:19.424Z,0.00
2018-09-25T01:16:54.921Z,0.80
2018-09-25T01:17:30.257Z,0.00
2018-09-25T01:18:05.582Z,0.00
2018-09-25T01:18:40.981Z,0.00
2018-09-25T01:19:16.287Z,0.00
2018-09-25T01:19:51.802Z,0.00
2018-09-25T01:20:27.444Z,0.00
2018-09-25T01:21:02.583Z,0.00
2018-09-25T01:21:38.225Z,0.00
2018-09-25T01:22:13.662Z,0.00
2018-09-25T01:22:48.983Z,0.80
2018-09-25T01:23:24.410Z,1.60
2018-09-25T01:23:59.775Z,0.00
2018-09-25T01:24:34.992Z,0.00
2018-09-25T01:25:10.061Z,0.00
2018-09-25T01:25:45.398Z,0.00
2018-09-25T01:26:20.709Z,2.40
2018-09-25T01:26:56.035Z,2.40
2018-09-25T01:27:31.452Z,0.00
2018-09-25T01:28:06.771Z,3.20
2018-09-25T01:28:42.288Z,0.80
2018-09-25T01:29:20.933Z,0.00
2018-09-25T01:29:56.460Z,0.00
2018-09-25T01:30:31.907Z,0.00
2018-09-25T01:31:07.367Z,0.80
2018-09-25T01:31:42.883Z,0.00
2018-09-25T01:32:18.085Z,0.80
2018-09-25T01:32:53.790Z,0.80
2018-09-25T01:33:29.215Z,0.00
2018-09-25T01:34:04.445Z,0.00
2018-09-25T01:34:39.833Z,0.00
2018-09-25T01:35:15.366Z,2.40
2018-09-25T01:35:50.698Z,2.40
2018-09-25T01:36:25.966Z,0.80
2018-09-25T01:37:01.389Z,0.00
2018-09-25T01:37:36.723Z,1.60
2018-09-25T01:38:11.864Z,2.40
2018-09-25T01:38:47.471Z,0.80
2018-09-25T01:39:22.981Z,0.00
2018-09-25T01:39:58.445Z,0.00
2018-09-25T01:40:33.756Z,0.80
2018-09-25T01:41:08.905Z,0.00
2018-09-25T01:41:44.926Z,0.00
2018-09-25T01:42:20.349Z,0.00
2018-09-25T01:42:55.638Z,0.00
2018-09-25T01:43:31.355Z,0.00
2018-09-25T01:44:06.803Z,0.00
2018-09-25T01:44:42.434Z,0.00
2018-09-25T01:45:17.777Z,0.00
2018-09-25T01:45:53.218Z,0.00
2018-09-25T01:46:28.561Z,0.00
2018-09-25T01:47:03.917Z,0.00
2018-09-25T01:47:39.865Z,0.00
2018-09-25T01:48:15.215Z,0.00
2018-09-25T01:48:50.396Z,0.00
2018-09-25T01:49:25.839Z,0.00
2018-09-25T01:50:01.175Z,0.00
2018-09-25T01:50:36.743Z,0.00
2018-09-25T01:51:12.112Z,0.00
2018-09-25T01:51:47.701Z,0.00
2018-09-25T01:52:23.289Z,0.00
2018-09-25T01:52:58.801Z,0.00
2018-09-25T01:53:34.254Z,0.00
2018-09-25T01:54:09.608Z,0.00
2018-09-25T01:54:45.357Z,0.00
2018-09-25T01:55:20.802Z,0.00
2018-09-25T01:55:55.886Z,0.00
2018-09-25T01:56:31.427Z,0.00
2018-09-25T01:57:06.857Z,0.00
2018-09-25T01:57:42.394Z,0.00
2018-09-25T01:58:17.845Z,0.00
2018-09-25T01:58:53.234Z,0.00
2018-09-25T01:59:28.693Z,0.00
2018-09-25T02:00:04.333Z,0.00
2018-09-25T02:00:39.736Z,0.00
2018-09-25T02:01:15.072Z,0.00
2018-09-25T02:01:50.395Z,0.00
2018-09-25T02:02:25.652Z,0.00
2018-09-25T02:03:00.884Z,0.00
2018-09-25T02:03:36.336Z,0.00
2018-09-25T02:04:11.661Z,0.00
2018-09-25T02:04:47.148Z,0.00
2018-09-25T02:05:22.273Z,0.00
2018-09-25T02:05:57.473Z,0.00
2018-09-25T02:06:33.003Z,0.00
2018-09-25T02:07:08.027Z,0.00
2018-09-25T02:07:43.582Z,0.00
2018-09-25T02:08:19.526Z,0.00
2018-09-25T02:08:54.934Z,0.00
2018-09-25T02:09:30.475Z,0.00
2018-09-25T02:10:05.910Z,0.00
2018-09-25T02:10:41.124Z,1.60
2018-09-25T02:11:16.466Z,3.20
2018-09-25T02:11:51.707Z,1.60
2018-09-25T02:12:27.240Z,1.60
2018-09-25T02:13:02.436Z,0.00
2018-09-25T02:13:37.487Z,0.00
2018-09-25T02:14:12.812Z,0.00
2018-09-25T02:14:47.912Z,0.00
2018-09-25T02:15:23.381Z,0.80
2018-09-25T02:15:58.484Z,0.80
2018-09-25T02:16:34.008Z,0.00
2018-09-25T02:17:09.328Z,2.40
2018-09-25T02:17:44.646Z,1.60
2018-09-25T02:18:20.401Z,0.80
2018-09-25T02:18:55.826Z,1.60
2018-09-25T02:19:30.962Z,2.40
2018-09-25T02:20:06.391Z,1.60
2018-09-25T02:20:41.986Z,3.20
2018-09-25T02:21:17.377Z,2.40
2018-09-25T02:21:52.474Z,1.60
2018-09-25T02:22:28.134Z,1.60
2018-09-25T02:23:03.679Z,4.00
2018-09-25T02:23:39.121Z,2.40
2018-09-25T02:24:14.447Z,3.20
2018-09-25T02:24:49.598Z,3.20
2018-09-25T02:25:25.161Z,2.40
2018-09-25T02:26:00.380Z,1.60
2018-09-25T02:26:35.806Z,0.80
2018-09-25T02:27:11.136Z,0.00
2018-09-25T02:27:46.450Z,0.00
2018-09-25T02:28:21.806Z,0.00
2018-09-25T02:28:56.997Z,0.00
2018-09-25T02:29:32.719Z,0.00
2018-09-25T02:30:08.038Z,2.40
2018-09-25T02:30:43.441Z,3.20
2018-09-25T02:31:18.754Z,2.40
2018-09-25T02:31:53.858Z,2.40
2018-09-25T02:32:29.600Z,2.40
2018-09-25T02:33:04.945Z,3.20
2018-09-25T02:33:40.343Z,3.20
2018-09-25T02:34:15.581Z,2.40
2018-09-25T02:34:50.992Z,4.00
2018-09-25T02:35:26.552Z,4.00
2018-09-25T02:36:02.230Z,4.00
2018-09-25T02:36:37.437Z,1.60
2018-09-25T02:37:13.052Z,1.60
2018-09-25T02:37:48.703Z,2.40
2018-09-25T02:38:24.332Z,0.80
2018-09-25T02:38:59.631Z,0.00
2018-09-25T02:39:34.894Z,1.60
2018-09-25T02:40:10.612Z,2.40
2018-09-25T02:40:45.932Z,2.40
2018-09-25T02:41:21.262Z,1.60
2018-09-25T02:41:56.876Z,3.20
2018-09-25T02:42:32.205Z,3.20
2018-09-25T02:43:07.655Z,2.40
2018-09-25T02:43:43.064Z,3.20
2018-09-25T02:44:18.424Z,4.00
2018-09-25T02:44:53.867Z,1.60
2018-09-25T02:45:29.401Z,2.40
2018-09-25T02:46:04.924Z,2.40
2018-09-25T02:46:40.217Z,0.00
2018-09-25T02:47:15.575Z,2.40
2018-09-25T02:47:50.919Z,2.40
2018-09-25T02:48:26.343Z,1.60
2018-09-25T02:49:01.563Z,1.60
2018-09-25T02:49:37.223Z,1.60
2018-09-25T02:50:12.961Z,1.60
2018-09-25T02:50:48.182Z,0.00
2018-09-25T02:51:23.600Z,0.00
2018-09-25T02:51:58.842Z,0.00
2018-09-25T02:52:33.899Z,0.00
2018-09-25T02:53:09.444Z,2.40
2018-09-25T02:53:44.566Z,1.60
2018-09-25T02:54:19.910Z,1.60
2018-09-25T02:54:55.339Z,1.60
2018-09-25T02:55:30.479Z,2.40
2018-09-25T02:56:06.020Z,2.40
2018-09-25T02:56:41.328Z,1.60
2018-09-25T02:57:16.904Z,1.60
2018-09-25T02:57:52.089Z,1.60
2018-09-25T02:58:27.720Z,2.40
2018-09-25T02:59:02.914Z,1.60
2018-09-25T02:59:38.152Z,2.40
2018-09-25T03:00:13.790Z,1.60
2018-09-25T03:00:49.212Z,1.60
2018-09-25T03:01:24.676Z,0.80
2018-09-25T03:02:00.181Z,2.40
2018-09-25T03:02:35.512Z,2.40
2018-09-25T03:03:11.043Z,3.20
2018-09-25T03:03:46.360Z,2.40
2018-09-25T03:04:21.488Z,3.20
2018-09-25T03:04:57.000Z,4.00
2018-09-25T03:05:32.772Z,2.40
2018-09-25T03:06:08.416Z,1.60
2018-09-25T03:06:43.626Z,1.60
2018-09-25T03:07:19.239Z,0.80
2018-09-25T03:07:54.538Z,0.00
2018-09-25T03:08:29.898Z,0.00
2018-09-25T03:09:05.340Z,0.00
2018-09-25T03:09:41.136Z,0.00
2018-09-25T03:10:16.377Z,0.80
2018-09-25T03:10:51.488Z,0.00
2018-09-25T03:11:26.502Z,1.60
2018-09-25T03:12:01.933Z,2.40
2018-09-25T03:12:37.255Z,2.40
2018-09-25T03:13:12.875Z,4.00
2018-09-25T03:13:48.377Z,1.60
2018-09-25T03:14:23.730Z,2.40
2018-09-25T03:14:59.151Z,1.60
2018-09-25T03:15:34.176Z,1.60
2018-09-25T03:16:09.648Z,1.60
2018-09-25T03:16:44.860Z,2.40
2018-09-25T03:17:20.354Z,2.40
2018-09-25T03:17:55.663Z,1.60
2018-09-25T03:18:31.217Z,0.80
2018-09-25T03:19:06.656Z,0.00
2018-09-25T03:19:41.720Z,0.00
2018-09-25T03:20:17.240Z,0.80
2018-09-25T03:20:52.671Z,1.60
2018-09-25T03:21:27.916Z,1.60
2018-09-25T03:22:03.539Z,0.80
2018-09-25T03:22:38.765Z,0.00
2018-09-25T03:23:14.151Z,0.00
2018-09-25T03:23:49.364Z,0.00
2018-09-25T03:24:24.536Z,0.00
2018-09-25T03:24:59.853Z,0.00
2018-09-25T03:25:35.069Z,1.60
2018-09-25T03:26:10.265Z,2.40
2018-09-25T03:26:45.447Z,2.40
2018-09-25T03:27:20.852Z,2.40
2018-09-25T03:27:56.501Z,2.40
2018-09-25T03:28:31.720Z,2.40
2018-09-25T03:29:07.126Z,2.40
2018-09-25T03:29:42.476Z,1.60
2018-09-25T03:30:17.875Z,2.40
2018-09-25T03:30:53.504Z,2.40
2018-09-25T03:31:28.743Z,2.40
2018-09-25T03:32:03.975Z,3.20
2018-09-25T03:32:39.328Z,2.40
2018-09-25T03:33:14.428Z,2.40
2018-09-25T03:33:49.655Z,2.40
2018-09-25T03:34:25.374Z,1.60
2018-09-25T03:35:00.678Z,0.80
2018-09-25T03:35:36.300Z,2.40
2018-09-25T03:36:11.416Z,1.60
2018-09-25T03:36:46.777Z,1.60
2018-09-25T03:37:22.228Z,0.80
2018-09-25T03:37:57.579Z,0.00
2018-09-25T03:38:33.137Z,0.00
2018-09-25T03:39:08.935Z,0.00
2018-09-25T03:39:44.494Z,0.00
2018-09-25T03:40:19.916Z,0.00
2018-09-25T03:40:55.827Z,0.80
2018-09-25T03:41:31.067Z,0.00
2018-09-25T03:42:06.279Z,0.00
2018-09-25T03:42:41.246Z,0.80
2018-09-25T03:43:16.529Z,0.80
2018-09-25T03:43:52.270Z,0.00
2018-09-25T03:44:27.508Z,1.60
2018-09-25T03:45:02.638Z,0.80
2018-09-25T03:45:38.145Z,1.60
2018-09-25T03:46:13.351Z,2.40
2018-09-25T03:46:48.889Z,1.60
2018-09-25T03:47:24.424Z,1.60
2018-09-25T03:47:59.709Z,0.00
2018-09-25T03:48:35.051Z,0.00
2018-09-25T03:49:10.461Z,0.00
2018-09-25T03:49:46.085Z,0.00
2018-09-25T03:50:21.521Z,3.20
2018-09-25T03:50:56.961Z,2.40
2018-09-25T03:51:32.490Z,2.40
2018-09-25T03:52:08.288Z,0.80
2018-09-25T03:52:44.564Z,2.40
2018-09-25T03:53:20.104Z,1.60
2018-09-25T03:53:55.865Z,0.00
2018-09-25T03:54:31.177Z,0.00
2018-09-25T03:55:06.598Z,0.00
2018-09-25T03:55:42.133Z,0.00
2018-09-25T03:56:17.637Z,0.00
2018-09-25T03:56:52.749Z,0.00
2018-09-25T03:57:27.865Z,0.00
2018-09-25T03:58:03.070Z,0.00
2018-09-25T03:58:40.410Z,0.00
2018-09-25T03:59:15.734Z,0.00
2018-09-25T03:59:50.860Z,0.00
2018-09-25T04:00:26.108Z,0.00
2018-09-25T04:01:01.629Z,0.00
2018-09-25T04:01:36.535Z,0.00
2018-09-25T04:02:12.166Z,0.00
2018-09-25T04:02:47.473Z,2.40
2018-09-25T04:03:22.903Z,1.60
2018-09-25T04:03:58.453Z,1.60
2018-09-25T04:04:33.782Z,0.80
2018-09-25T04:05:09.323Z,1.60
2018-09-25T04:05:44.563Z,1.60
2018-09-25T04:06:19.833Z,1.60
2018-09-25T04:06:55.119Z,1.60
2018-09-25T04:07:30.647Z,0.80
2018-09-25T04:08:05.850Z,0.00
2018-09-25T04:08:41.099Z,0.80
2018-09-25T04:09:16.299Z,0.00
2018-09-25T04:09:51.827Z,0.80
2018-09-25T04:10:27.061Z,3.20
2018-09-25T04:11:02.393Z,3.20
2018-09-25T04:11:37.720Z,3.20
2018-09-25T04:12:12.713Z,3.20
2018-09-25T04:12:48.063Z,3.20
2018-09-25T04:13:23.314Z,2.40
2018-09-25T04:13:58.469Z,2.40
2018-09-25T04:14:33.807Z,1.60
2018-09-25T04:15:09.122Z,1.60
2018-09-25T04:15:44.452Z,0.80
2018-09-25T04:16:19.865Z,0.00
2018-09-25T04:16:55.092Z,0.00
2018-09-25T04:17:30.400Z,0.00
2018-09-25T04:18:05.811Z,0.00
2018-09-25T04:18:41.143Z,0.00
2018-09-25T04:19:16.356Z,0.00
2018-09-25T04:19:51.296Z,0.00
2018-09-25T04:20:26.542Z,0.00
2018-09-25T04:21:01.839Z,2.40
2018-09-25T04:21:37.287Z,2.40
2018-09-25T04:22:12.899Z,2.40
2018-09-25T04:22:48.238Z,1.60
2018-09-25T04:23:23.377Z,0.80
2018-09-25T04:23:59.041Z,0.00
2018-09-25T04:24:34.468Z,0.00
2018-09-25T04:25:09.875Z,0.00
2018-09-25T04:25:45.607Z,0.00
2018-09-25T04:26:20.933Z,0.00
2018-09-25T04:26:56.462Z,0.00
2018-09-25T04:27:31.616Z,0.00
2018-09-25T04:28:06.837Z,0.00
2018-09-25T04:28:42.180Z,0.00
2018-09-25T04:29:17.513Z,0.00
2018-09-25T04:29:52.770Z,0.00
2018-09-25T04:30:28.097Z,0.00
2018-09-25T04:31:03.624Z,1.60
2018-09-25T04:31:38.953Z,2.40
2018-09-25T04:32:14.372Z,1.60
2018-09-25T04:32:49.701Z,1.60
2018-09-25T04:33:25.142Z,2.40
2018-09-25T04:34:00.674Z,1.60
2018-09-25T04:34:36.016Z,0.80
2018-09-25T04:35:11.218Z,0.00
2018-09-25T04:35:46.563Z,0.00
2018-09-25T04:36:22.156Z,0.00
2018-09-25T04:36:57.567Z,0.00
2018-09-25T04:37:33.072Z,1.60
2018-09-25T04:38:08.506Z,1.60
2018-09-25T04:38:43.809Z,1.60
2018-09-25T04:39:19.533Z,1.60
2018-09-25T04:39:54.978Z,1.60
2018-09-25T04:40:30.414Z,1.60
2018-09-25T04:41:05.725Z,0.00
2018-09-25T04:41:41.145Z,2.40
2018-09-25T04:42:16.569Z,2.40
2018-09-25T04:42:51.902Z,0.80
2018-09-25T04:43:27.421Z,0.80
2018-09-25T04:44:02.778Z,0.00
2018-09-25T04:44:38.351Z,2.40
2018-09-25T04:45:13.869Z,1.60
2018-09-25T04:45:49.272Z,1.60
2018-09-25T04:46:24.603Z,1.60
2018-09-25T04:47:00.100Z,2.40
2018-09-25T04:47:35.462Z,2.40
2018-09-25T04:48:10.571Z,1.60
2018-09-25T04:48:45.814Z,1.60
2018-09-25T04:49:21.014Z,2.40
2018-09-25T04:49:56.295Z,4.00
2018-09-25T04:50:31.692Z,2.40
2018-09-25T04:51:07.038Z,2.40
2018-09-25T04:51:42.450Z,1.60
2018-09-25T04:52:17.768Z,3.20
2018-09-25T04:52:53.098Z,3.20
2018-09-25T04:53:28.510Z,3.20
2018-09-25T04:54:03.933Z,2.40
2018-09-25T04:54:39.139Z,2.40
2018-09-25T04:55:14.473Z,2.40
2018-09-25T04:55:49.909Z,3.20
2018-09-25T04:56:25.302Z,2.40
2018-09-25T04:57:00.686Z,3.20
2018-09-25T04:57:35.733Z,3.20
2018-09-25T04:58:11.380Z,4.00
2018-09-25T04:58:46.965Z,4.00
2018-09-25T04:59:22.613Z,4.00
2018-09-25T04:59:57.922Z,4.80
2018-09-25T05:00:33.077Z,4.80
2018-09-25T05:01:08.287Z,4.00
2018-09-25T05:01:43.515Z,2.40
2018-09-25T05:02:18.721Z,4.00
2018-09-25T05:02:54.353Z,4.80
2018-09-25T05:03:29.684Z,4.80
2018-09-25T05:04:05.124Z,3.20
2018-09-25T05:04:40.334Z,2.40
2018-09-25T05:05:15.659Z,1.60
2018-09-25T05:05:50.893Z,2.40
2018-09-25T05:06:26.246Z,1.60
2018-09-25T05:07:01.409Z,0.80
2018-09-25T05:07:36.923Z,2.40
2018-09-25T05:08:12.242Z,1.60
2018-09-25T05:08:47.983Z,3.20
2018-09-25T05:09:23.224Z,4.00
2018-09-25T05:09:58.590Z,2.40
2018-09-25T05:10:33.886Z,2.40
2018-09-25T05:11:09.152Z,4.80
2018-09-25T05:11:44.748Z,3.20
2018-09-25T05:12:19.898Z,3.20
2018-09-25T05:12:55.307Z,3.20
2018-09-25T05:13:30.755Z,3.20
2018-09-25T05:14:06.060Z,3.20
2018-09-25T05:14:41.525Z,4.00
2018-09-25T05:15:16.768Z,4.80
2018-09-25T05:15:52.214Z,5.60
2018-09-25T05:16:27.545Z,6.40
2018-09-25T05:17:03.003Z,4.80
2018-09-25T05:17:38.416Z,4.00
2018-09-25T05:18:13.769Z,3.20
2018-09-25T05:18:49.455Z,4.00
2018-09-25T05:19:24.790Z,4.00
2018-09-25T05:20:00.083Z,4.80
2018-09-25T05:20:35.220Z,4.80
2018-09-25T05:21:10.963Z,4.00
2018-09-25T05:21:46.655Z,5.60
2018-09-25T05:22:22.003Z,4.00
2018-09-25T05:22:57.434Z,4.00
2018-09-25T05:23:32.638Z,7.20
2018-09-25T05:24:07.985Z,5.60
2018-09-25T05:24:43.363Z,4.00
2018-09-25T05:25:18.769Z,3.20
2018-09-25T05:25:54.156Z,3.20
2018-09-25T05:26:29.743Z,4.00
2018-09-25T05:27:04.980Z,3.20
2018-09-25T05:27:40.231Z,4.00
2018-09-25T05:28:15.434Z,4.00
2018-09-25T05:28:50.996Z,4.00
2018-09-25T05:29:26.542Z,4.80
2018-09-25T05:30:01.981Z,5.60
2018-09-25T05:30:37.390Z,4.80
2018-09-25T05:31:12.716Z,6.40
2018-09-25T05:31:48.245Z,6.40
2018-09-25T05:32:23.805Z,3.20
2018-09-25T05:32:59.207Z,7.20
2018-09-25T05:33:34.459Z,4.80
2018-09-25T05:34:09.602Z,4.80
2018-09-25T05:34:44.813Z,4.00
2018-09-25T05:35:20.195Z,4.80
2018-09-25T05:35:55.938Z,8.80
2018-09-25T05:36:31.236Z,5.60
2018-09-25T05:37:06.903Z,3.20
2018-09-25T05:37:42.516Z,4.80
2018-09-25T05:38:17.754Z,3.20
2018-09-25T05:38:53.241Z,5.60
2018-09-25T05:39:28.887Z,6.40
2018-09-25T05:40:04.145Z,3.20
2018-09-25T05:40:39.514Z,4.00
2018-09-25T05:41:15.040Z,3.20
2018-09-25T05:41:50.503Z,3.20
2018-09-25T05:42:25.922Z,4.80
2018-09-25T05:43:01.442Z,4.80
2018-09-25T05:43:37.094Z,4.80
2018-09-25T05:44:12.567Z,4.80
2018-09-25T05:44:47.896Z,5.60
2018-09-25T05:45:23.427Z,4.80
2018-09-25T05:45:58.444Z,3.20
2018-09-25T05:46:33.603Z,4.00
2018-09-25T05:47:09.149Z,3.20
2018-09-25T05:47:44.272Z,4.80
2018-09-25T05:48:19.752Z,4.00
2018-09-25T05:48:55.119Z,4.00
2018-09-25T05:49:30.018Z,5.60
2018-09-25T05:50:05.551Z,4.80
2018-09-25T05:50:40.858Z,4.00
2018-09-25T05:51:16.204Z,6.41
2018-09-25T05:51:51.756Z,4.80
2018-09-25T05:52:26.911Z,6.40
2018-09-25T05:53:02.297Z,4.00
2018-09-25T05:53:37.927Z,4.80
2018-09-25T05:54:13.234Z,5.60
2018-09-25T05:54:48.577Z,4.80
2018-09-25T05:55:23.864Z,2.40
2018-09-25T05:55:59.061Z,4.00
2018-09-25T05:56:34.318Z,4.00
2018-09-25T05:57:09.718Z,4.80
2018-09-25T05:57:45.305Z,2.40
2018-09-25T05:58:20.749Z,2.40
2018-09-25T05:58:55.981Z,2.40
2018-09-25T05:59:31.360Z,4.00
2018-09-25T06:00:06.494Z,4.00
2018-09-25T06:00:41.792Z,3.20
2018-09-25T06:01:17.245Z,4.80
2018-09-25T06:01:52.535Z,1.60
2018-09-25T06:02:27.986Z,4.00
2018-09-25T06:03:03.717Z,5.60
2018-09-25T06:03:39.081Z,5.60
2018-09-25T06:04:14.298Z,5.60
2018-09-25T06:04:49.529Z,4.00
2018-09-25T06:05:25.152Z,3.20
2018-09-25T06:06:00.611Z,3.20
2018-09-25T06:06:35.771Z,4.80
2018-09-25T06:07:11.105Z,4.00
2018-09-25T06:07:46.700Z,3.20
2018-09-25T06:08:22.077Z,2.40
2018-09-25T06:08:57.680Z,4.00
2018-09-25T06:09:33.207Z,3.20
2018-09-25T06:10:08.517Z,4.00
2018-09-25T06:10:43.841Z,4.80
2018-09-25T06:11:19.126Z,4.80
2018-09-25T06:11:54.756Z,4.00
2018-09-25T06:12:30.271Z,4.00
2018-09-25T06:13:05.702Z,4.00
2018-09-25T06:13:41.124Z,4.80
2018-09-25T06:14:16.875Z,3.20
2018-09-25T06:14:52.428Z,4.80
2018-09-25T06:15:27.795Z,3.20
2018-09-25T06:16:03.220Z,4.00
2018-09-25T06:16:38.865Z,6.40
2018-09-25T06:17:14.375Z,3.20
2018-09-25T06:17:49.718Z,3.20
2018-09-25T06:18:25.025Z,3.20
2018-09-25T06:19:00.395Z,2.40
2018-09-25T06:19:35.601Z,4.80
2018-09-25T06:20:10.946Z,3.20
2018-09-25T06:20:46.671Z,4.00
2018-09-25T06:21:21.987Z,5.60
2018-09-25T06:21:57.296Z,5.60
2018-09-25T06:22:32.532Z,4.80
2018-09-25T06:23:07.787Z,4.80
2018-09-25T06:23:43.087Z,3.20
2018-09-25T06:24:18.590Z,4.80
2018-09-25T06:24:53.840Z,4.80
2018-09-25T06:25:29.271Z,4.00
2018-09-25T06:26:04.730Z,4.00
2018-09-25T06:26:40.134Z,4.00
2018-09-25T06:27:15.604Z,4.00
2018-09-25T06:27:51.032Z,3.20
2018-09-25T06:28:26.549Z,4.00
2018-09-25T06:29:01.775Z,4.80
2018-09-25T06:29:37.298Z,7.20
2018-09-25T06:30:12.880Z,5.60
2018-09-25T06:30:48.220Z,4.80
2018-09-25T06:31:23.509Z,5.60
2018-09-25T06:31:58.743Z,6.40
2018-09-25T06:32:34.038Z,5.60
2018-09-25T06:33:09.373Z,6.40
2018-09-25T06:33:44.591Z,4.80
2018-09-25T06:34:20.161Z,4.00
2018-09-25T06:34:55.388Z,4.00
2018-09-25T06:35:30.797Z,3.20
2018-09-25T06:36:06.029Z,4.00
2018-09-25T06:36:41.447Z,3.20
2018-09-25T06:37:16.658Z,1.60
2018-09-25T06:37:51.969Z,1.60
2018-09-25T06:38:27.074Z,2.40
2018-09-25T06:39:02.526Z,2.40
2018-09-25T06:39:37.963Z,2.40
2018-09-25T06:40:13.292Z,2.40
2018-09-25T06:40:48.625Z,2.40
2018-09-25T06:41:23.966Z,3.20
2018-09-25T06:41:59.191Z,1.60
2018-09-25T06:42:34.724Z,3.20
2018-09-25T06:43:10.140Z,2.40
2018-09-25T06:43:45.760Z,0.80
2018-09-25T06:44:21.162Z,3.20
2018-09-25T06:44:56.414Z,2.40
2018-09-25T06:45:31.700Z,2.40
2018-09-25T06:46:07.444Z,1.60
2018-09-25T06:46:42.537Z,3.20
2018-09-25T06:47:18.045Z,4.80
2018-09-25T06:47:53.180Z,4.00
2018-09-25T06:48:28.367Z,3.20
2018-09-25T06:49:03.900Z,6.40
2018-09-25T06:49:39.207Z,1.60
2018-09-25T06:50:14.778Z,4.00
2018-09-25T06:50:50.146Z,4.00
2018-09-25T06:51:25.859Z,3.20
2018-09-25T06:52:01.393Z,2.40
2018-09-25T06:52:36.810Z,3.20
2018-09-25T06:53:11.957Z,2.40
2018-09-25T06:53:47.564Z,0.80
2018-09-25T06:54:22.685Z,1.60
2018-09-25T06:54:57.865Z,1.60
2018-09-25T06:55:33.176Z,0.00
2018-09-25T06:56:08.870Z,2.40
2018-09-25T06:56:44.380Z,2.40
2018-09-25T06:57:19.679Z,1.60
2018-09-25T06:57:55.030Z,1.60
2018-09-25T06:58:30.333Z,0.80
2018-09-25T06:59:05.659Z,2.40
2018-09-25T06:59:41.170Z,1.60
2018-09-25T07:00:16.628Z,0.80
2018-09-25T07:00:52.413Z,2.40
2018-09-25T07:01:27.684Z,3.20
2018-09-25T07:02:03.004Z,3.20
2018-09-25T07:02:38.337Z,2.40
2018-09-25T07:03:13.638Z,0.80
2018-09-25T07:03:49.332Z,3.20
2018-09-25T07:04:24.536Z,3.20
2018-09-25T07:05:00.082Z,2.40
2018-09-25T07:05:35.342Z,0.80
2018-09-25T07:06:10.784Z,0.80
2018-09-25T07:06:45.934Z,1.60
2018-09-25T07:07:21.022Z,0.00
2018-09-25T07:07:56.352Z,1.60
2018-09-25T07:08:31.570Z,3.20
2018-09-25T07:09:06.910Z,4.00
2018-09-25T07:09:42.593Z,4.80
2018-09-25T07:10:18.091Z,0.80
2018-09-25T07:10:53.717Z,0.00
2018-09-25T07:11:29.354Z,0.80
2018-09-25T07:12:04.676Z,2.40
2018-09-25T07:12:39.998Z,1.60
2018-09-25T07:13:15.212Z,2.40
2018-09-25T07:13:50.560Z,1.60
2018-09-25T07:14:25.878Z,0.80
2018-09-25T07:15:01.307Z,0.00
2018-09-25T07:15:36.415Z,0.00
2018-09-25T07:16:11.686Z,1.60
2018-09-25T07:16:46.908Z,0.80
2018-09-25T07:17:22.454Z,1.60
2018-09-25T07:17:57.890Z,1.60
2018-09-25T07:18:33.193Z,1.60
2018-09-25T07:19:08.400Z,0.80
2018-09-25T07:19:43.858Z,3.20
2018-09-25T07:20:19.162Z,1.60
2018-09-25T07:20:54.805Z,3.20
2018-09-25T07:21:30.248Z,2.40
2018-09-25T07:22:05.701Z,1.60
2018-09-25T07:22:41.035Z,1.60
2018-09-25T07:23:16.832Z,1.60
2018-09-25T07:23:52.150Z,1.60
2018-09-25T07:24:27.624Z,0.80
2018-09-25T07:25:02.928Z,0.00
2018-09-25T07:25:38.260Z,0.80
2018-09-25T07:26:13.858Z,0.00
2018-09-25T07:26:49.003Z,0.80
2018-09-25T07:27:24.320Z,0.80
2018-09-25T07:27:59.858Z,0.00
2018-09-25T07:28:34.979Z,0.80
2018-09-25T07:29:10.306Z,0.00
2018-09-25T07:29:45.737Z,0.00
2018-09-25T07:30:21.379Z,0.00
2018-09-25T07:30:57.182Z,0.80
2018-09-25T07:31:32.452Z,1.60
2018-09-25T07:32:07.873Z,0.00
2018-09-25T07:32:43.349Z,0.80
2018-09-25T07:33:18.646Z,0.80
2018-09-25T07:33:53.910Z,0.00
2018-09-25T07:34:29.319Z,0.80
2018-09-25T07:35:04.866Z,2.40
2018-09-25T07:35:40.285Z,1.60
2018-09-25T07:36:15.728Z,1.60
2018-09-25T07:36:51.160Z,0.80
2018-09-25T07:37:26.596Z,0.00
2018-09-25T07:38:01.789Z,0.00
2018-09-25T07:38:37.224Z,2.40
2018-09-25T07:39:12.946Z,1.60
2018-09-25T07:39:49.315Z,0.80
2018-09-25T07:40:24.893Z,0.80
2018-09-25T07:41:00.153Z,0.00
2018-09-25T07:41:35.470Z,0.80
2018-09-25T07:42:11.141Z,0.00
2018-09-25T07:42:46.763Z,0.00
2018-09-25T07:43:22.043Z,0.00
2018-09-25T07:43:57.352Z,0.80
2018-09-25T07:44:32.815Z,0.00
2018-09-25T07:45:08.342Z,3.20
2018-09-25T07:45:43.554Z,0.80
2018-09-25T07:46:18.760Z,0.80
2018-09-25T07:46:53.988Z,0.00
2018-09-25T07:47:29.507Z,1.60
2018-09-25T07:48:04.896Z,1.60
2018-09-25T07:48:40.652Z,1.60
2018-09-25T07:49:16.166Z,0.80
2018-09-25T07:49:51.370Z,2.40
2018-09-25T07:50:26.610Z,0.80
2018-09-25T07:51:01.942Z,0.80